Latest Weather Observations for Adelaide

IDS60901

Issued at 9:11 pm CDT Monday 20 February 2017 (issued every 10 minutes, with the page automatically refreshed every 10 minutes)

About weather observations | Map of Adelaide area stations | Latest observations for Adelaide area | Other Formats
Station Details ID: 023090 Name: KENT TOWN Lat: -34.92 Lon: 138.62 Height: 48.0 m
Data from the previous 72 hours. | See also: Recent months at Adelaide
Date/Time
CDT
Temp
°C
App
Temp
°C
Dew
Point
°C
Rel
Hum
%
Delta-T
°C
Wind Press
QNH
hPa
Press
MSL
hPa
Rain since
9am
mm
Dir  Spd
km/h
Gust
km/h
Spd
kts
Gust
kts
20/09:00pm 16.5 13.7 7.0 53 4.7 SE 11 19 6 10 1019.2 1019.0 0.0
20/08:30pm 17.2 14.8 7.2 51 5.0 SSE 9 20 5 11 1019.0 1018.8 0.0
20/08:00pm 18.2 15.5 7.3 49 5.5 SSE 11 22 6 12 1018.6 1018.4 0.0
20/07:30pm 19.7 16.8 8.3 47 5.9 SW 13 22 7 12 1018.0 1017.8 0.0
20/07:00pm 20.1 16.6 8.6 47 6.0 SW 17 26 9 14 1017.7 1017.5 0.0
20/06:30pm 21.1 17.7 7.5 41 7.0 SW 15 24 8 13 1017.4 1017.2 0.0
20/06:00pm 21.3 17.4 7.3 40 7.2 SW 17 26 9 14 1017.3 1017.1 0.0
20/05:30pm 21.8 17.7 6.4 36 7.8 WSW 17 24 9 13 1017.3 1017.1 0.0
20/05:00pm 22.3 18.7 6.7 36 8.0 SW 15 24 8 13 1017.1 1016.9 0.0
20/04:30pm 22.2 18.2 6.5 36 8.0 SW 17 30 9 16 1017.2 1017.0 0.0
20/04:00pm 22.4 18.6 7.4 38 7.8 SW 17 26 9 14 1017.3 1017.1 0.0
20/03:30pm 22.0 18.4 6.7 37 7.8 WSW 15 24 8 13 1017.6 1017.4 0.0
20/03:00pm 21.9 17.9 6.6 37 7.8 WSW 17 24 9 13 1017.9 1017.7 0.0
20/02:30pm 21.7 17.6 6.0 36 7.9 WSW 17 32 9 17 1018.1 1017.9 0.0
20/02:00pm 22.2 18.4 5.6 34 8.3 WSW 15 26 8 14 1018.2 1018.0 0.0
20/01:30pm 21.3 17.8 5.4 35 7.9 SW 13 24 7 13 1018.3 1018.1 0.0
20/01:00pm 20.2 17.5 5.6 38 7.2 S 9 19 5 10 1018.5 1018.3 0.0
20/12:30pm 20.1 16.7 6.0 39 7.0 SW 13 24 7 13 1018.8 1018.6 0.0
20/12:00pm 19.9 16.6 6.6 42 6.7 SSW 13 20 7 11 1018.9 1018.7 0.0
20/11:30am 19.9 17.5 6.8 42 6.6 S 9 19 5 10 1019.0 1018.8 0.0
20/11:00am 19.5 16.2 6.5 42 6.5 SW 13 20 7 11 1019.3 1019.1 0.0
20/10:30am 18.6 16.4 6.3 44 6.1 SSW 7 13 4 7 1019.5 1019.3 0.0
20/10:00am 18.7 16.1 5.9 43 6.3 S 9 19 5 10 1019.4 1019.2 0.0
20/09:30am 17.7 15.8 7.4 51 5.2 SW 7 11 4 6 1019.2 1019.0 0.0
20/09:00am 17.1 15.9 8.0 55 4.6 S 4 7 2 4 1019.1 1018.9 0.8
20/08:30am 16.2 15.8 8.3 59 4.0 CALM 0 7 0 4 1019.0 1018.8 0.8
20/08:00am 15.5 14.6 7.9 60 3.8 ESE 2 7 1 4 1018.6 1018.4 0.8
20/07:30am 14.9 14.8 9.5 70 2.8 CALM 0 0 0 0 1018.3 1018.1 0.8
20/07:00am 14.7 14.2 9.2 69 2.8 S 2 7 1 4 1017.9 1017.7 0.8
20/06:30am 14.8 13.4 8.9 68 3.0 SSW 6 15 3 8 1017.8 1017.6 0.8
20/06:00am 14.4 13.0 8.9 69 2.8 S 6 11 3 6 1017.4 1017.2 0.8
20/05:30am 13.7 12.6 9.8 77 2.0 SSW 6 9 3 5 1017.3 1017.1 0.8
20/05:00am 13.6 13.6 9.7 77 2.0 CALM 0 0 0 0 1016.9 1016.7 0.8
20/04:30am 13.3 12.9 9.6 78 1.9 SSE 2 6 1 3 1016.8 1016.6 0.8
20/04:00am 13.2 12.0 9.5 78 1.9 SSE 6 9 3 5 1017.0 1016.8 0.8
20/03:30am 13.6 12.4 9.5 76 2.1 S 6 7 3 4 1017.0 1016.8 0.8
20/03:00am 14.0 12.7 9.9 76 2.1 SW 7 9 4 5 1017.2 1017.0 0.8
20/02:30am 14.3 13.2 9.9 75 2.3 S 6 9 3 5 1017.2 1017.0 0.8
20/02:00am 14.5 12.8 9.9 74 2.4 SSW 9 13 5 7 1017.2 1017.0 0.8
20/01:30am 14.4 12.7 9.8 74 2.4 SSW 9 13 5 7 1017.4 1017.2 0.8
20/01:00am 14.3 13.2 10.1 76 2.2 SSW 6 9 3 5 1017.4 1017.2 0.8
20/12:30am 14.3 12.9 9.6 73 2.4 S 7 11 4 6 1017.4 1017.2 0.8
20/12:00am 14.9 13.5 9.5 70 2.8 S 7 13 4 7 1017.6 1017.4 0.8
 
Date/Time
CDT
Temp
°C
App
Temp
°C
Dew
Point
°C
Rel
Hum
%
Delta-T
°C
Wind Press
QNH
hPa
Press
MSL
hPa
Rain since
9am
mm
Dir  Spd
km/h
Gust
km/h
Spd
kts
Gust
kts
19/11:30pm 15.3 13.5 9.3 67 3.1 S 9 19 5 10 1017.6 1017.4 0.8
19/11:00pm 15.6 13.8 9.4 66 3.2 S 9 17 5 9 1017.9 1017.7 0.8
19/10:30pm 15.1 13.6 9.0 67 3.1 S 7 13 4 7 1017.8 1017.6 0.8
19/10:00pm 15.0 13.5 9.1 68 3.0 SW 7 13 4 7 1017.6 1017.4 0.8
19/09:30pm 15.2 13.7 9.2 67 3.1 SW 7 11 4 6 1017.5 1017.3 0.8
19/09:00pm 15.7 13.0 9.1 65 3.4 SSW 13 20 7 11 1017.1 1016.9 0.8
19/08:30pm 16.4 13.6 10.1 66 3.3 SSW 15 22 8 12 1017.0 1016.8 0.8
19/08:00pm 16.8 14.1 9.1 60 4.0 SSW 13 19 7 10 1016.7 1016.5 0.8
19/07:30pm 17.7 14.8 9.5 58 4.3 SSW 15 24 8 13 1016.5 1016.3 0.8
19/07:00pm 18.1 14.5 8.2 52 5.1 SSW 17 28 9 15 1016.2 1016.0 0.8
19/06:30pm 18.7 15.1 8.2 50 5.4 SW 17 33 9 18 1016.2 1016.0 0.8
19/06:00pm 18.6 14.7 9.5 55 4.8 SW 20 33 11 18 1016.2 1016.0 0.8
19/05:30pm 19.1 15.3 9.0 52 5.3 SW 19 35 10 19 1016.3 1016.1 0.8
19/05:00pm 18.6 14.7 9.3 54 4.9 SW 20 32 11 17 1016.4 1016.2 0.8
19/04:30pm 19.0 16.0 9.1 52 5.2 SW 15 22 8 12 1016.5 1016.3 0.8
19/04:00pm 17.5 13.4 11.6 68 3.2 SW 24 37 13 20 1016.6 1016.4 0.8
19/03:30pm 18.5 14.9 10.5 59 4.3 SW 20 33 11 18 1016.7 1016.5 0.8
19/03:00pm 18.7 15.7 10.7 59 4.3 SSW 17 26 9 14 1016.8 1016.6 0.8
19/02:30pm 18.9 14.9 9.0 52 5.2 SW 20 35 11 19 1017.0 1016.8 0.8
19/02:00pm 18.9 15.1 9.7 55 4.9 SW 20 35 11 19 1017.2 1017.0 0.8
19/01:30pm 18.4 14.8 9.7 57 4.6 SW 19 30 10 16 1017.4 1017.2 0.8
19/01:00pm 17.5 13.9 10.6 64 3.7 SW 20 33 11 18 1017.4 1017.2 0.8
19/12:30pm 16.1 13.7 11.3 73 2.6 SSW 15 26 8 14 1017.8 1017.6 0.8
19/12:00pm 16.8 13.5 9.5 62 3.8 SW 17 28 9 15 1017.9 1017.7 0.6
19/11:30am 16.9 15.0 10.5 66 3.4 SSW 11 17 6 9 1017.9 1017.7 0.6
19/11:00am 16.1 14.6 10.4 69 3.0 SSW 9 15 5 8 1018.0 1017.8 0.6
19/10:30am 15.1 13.1 11.4 78 2.0 S 13 22 7 12 1018.2 1018.0 0.6
19/10:00am 14.1 12.4 12.4 89 0.9 SSW 13 26 7 14 1018.1 1017.9 0.6
19/09:30am 14.8 15.2 11.4 80 1.8 CALM 0 4 0 2 1017.7 1017.5 0.0
19/09:00am 14.3 14.5 11.9 85 1.3 NW 2 11 1 6 1017.9 1017.7 2.4
19/08:30am 13.9 14.3 11.3 84 1.4 CALM 0 0 0 0 1017.6 1017.4 2.4
19/08:00am 13.2 12.2 10.9 86 1.2 S 7 11 4 6 1017.4 1017.2 2.4
19/07:30am 13.3 13.5 11.8 91 0.8 S 2 6 1 3 1017.3 1017.1 2.4
19/07:00am 12.8 13.2 11.3 91 0.8 CALM 0 0 0 0 1017.1 1016.9 2.4
19/06:30am 12.7 12.0 11.4 92 0.7 SW 6 9 3 5 1017.0 1016.8 2.2
19/06:00am 13.0 13.0 11.3 89 0.9 NW 2 6 1 3 1016.8 1016.6 1.8
19/05:30am 12.9 12.8 10.8 87 1.1 WSW 2 6 1 3 1016.8 1016.6 1.8
19/05:00am 12.8 11.9 10.7 87 1.1 SSE 6 13 3 7 1016.7 1016.5 1.6
19/04:30am 12.9 13.3 11.4 91 0.8 CALM 0 0 0 0 1016.7 1016.5 1.4
19/04:00am 12.6 12.9 10.9 89 0.9 CALM 0 0 0 0 1016.9 1016.7 1.4
19/03:30am 12.3 11.8 10.6 89 0.9 SE 4 9 2 5 1017.0 1016.8 1.4
19/03:00am 12.9 11.0 10.6 86 1.2 SSW 11 20 6 11 1017.2 1017.0 0.2
19/02:30am 14.8 13.4 7.3 61 3.7 SW 4 7 2 4 1017.2 1017.0 0.0
19/02:00am 14.6 12.4 6.3 57 4.0 S 7 13 4 7 1017.4 1017.2 0.0
19/01:30am 14.6 12.1 6.5 58 3.9 S 9 15 5 8 1017.8 1017.6 0.0
19/01:00am 14.8 12.0 7.0 59 3.8 S 11 17 6 9 1018.0 1017.8 0.0
19/12:30am 14.7 12.7 7.2 61 3.7 S 7 15 4 8 1018.0 1017.8 0.0
19/12:00am 14.6 12.6 7.3 61 3.6 S 7 15 4 8 1018.0 1017.8 0.0
 
Date/Time
CDT
Temp
°C
App
Temp
°C
Dew
Point
°C
Rel
Hum
%
Delta-T
°C
Wind Press
QNH
hPa
Press
MSL
hPa
Rain since
9am
mm
Dir  Spd
km/h
Gust
km/h
Spd
kts
Gust
kts
18/11:30pm 14.6 12.1 8.0 64 3.3 S 11 22 6 12 1018.0 1017.8 0.0
18/11:00pm 14.9 12.8 6.7 58 4.0 S 7 13 4 7 1017.9 1017.7 0.0
18/10:30pm 14.5 12.7 7.2 61 3.6 SSW 6 9 3 5 1018.0 1017.8 0.0
18/10:00pm 14.8 12.0 6.8 58 3.9 SSW 11 19 6 10 1018.1 1017.9 0.0
18/09:30pm 15.6 12.6 6.1 53 4.6 S 11 22 6 12 1017.7 1017.5 0.0
18/09:00pm 15.9 13.4 6.5 53 4.6 SSE 9 19 5 10 1017.4 1017.2 0.0
18/08:30pm 16.1 13.1 6.0 51 4.9 S 11 20 6 11 1017.0 1016.8 0.0
18/08:00pm 16.7 12.5 5.5 47 5.4 SSW 17 28 9 15 1016.9 1016.7 0.0
18/07:30pm 17.3 12.8 4.4 42 6.1 SSW 17 32 9 17 1016.4 1016.2 0.0
18/07:00pm 17.8 13.5 5.1 43 6.1 SSW 17 30 9 16 1016.1 1015.9 0.0
18/06:30pm 18.8 13.6 3.8 37 7.1 SW 20 32 11 17 1015.9 1015.7 0.0
18/06:00pm 19.9 15.1 4.9 37 7.3 SW 19 35 10 19 1015.9 1015.7 0.0
18/05:30pm 19.6 14.2 4.7 37 7.2 SSW 22 39 12 21 1015.8 1015.6 0.0
18/05:00pm 19.5 14.4 3.1 33 7.7 SW 19 30 10 16 1016.0 1015.8 0.0
18/04:30pm 18.5 14.1 7.2 47 5.7 SW 20 35 11 19 1016.3 1016.1 0.0
18/04:00pm 18.0 13.7 7.0 48 5.5 SW 19 30 10 16 1016.4 1016.2 0.0
18/03:30pm 18.7 14.1 6.4 44 6.1 SW 20 37 11 20 1016.6 1016.4 0.0
18/03:00pm 19.3 14.8 6.8 44 6.3 SW 20 33 11 18 1016.6 1016.4 0.0
18/02:30pm 17.5 13.3 9.7 60 4.1 SW 22 37 12 20 1016.9 1016.7 0.0
18/02:00pm 20.3 15.5 5.8 38 7.2 WSW 20 37 11 20 1016.7 1016.5 0.0
18/01:30pm 18.5 13.6 6.7 46 5.9 SW 22 37 12 20 1016.5 1016.3 0.0
18/01:00pm 19.0 15.2 7.4 47 5.9 SW 17 28 9 15 1016.5 1016.3 0.0
18/12:30pm 18.0 13.1 7.0 48 5.5 WSW 22 37 12 20 1016.7 1016.5 0.0
18/12:00pm 18.1 13.6 6.9 48 5.6 SW 20 33 11 18 1016.8 1016.6 0.0
18/11:30am 19.2 14.7 6.9 44 6.2 SW 20 35 11 19 1016.7 1016.5 0.0
18/11:00am 18.3 14.2 7.7 50 5.4 SW 19 35 10 19 1016.8 1016.6 0.0
18/10:30am 17.2 11.9 6.7 50 5.2 SW 24 33 13 18 1016.7 1016.5 0.0
18/10:00am 17.3 12.9 6.6 49 5.3 SW 19 32 10 17 1016.6 1016.4 0.0
18/09:30am 17.0 11.2 4.5 43 5.9 SW 24 39 13 21 1016.5 1016.3 0.0
18/09:00am 16.9 12.9 6.8 51 5.0 SW 17 28 9 15 1016.1 1015.9 0.0
18/08:30am 16.6 11.9 6.1 50 5.1 SW 20 35 11 19 1015.9 1015.7 0.0
18/08:00am 16.8 13.6 6.7 51 5.0 SW 13 22 7 12 1015.5 1015.3 0.0
18/07:30am 15.9 13.7 7.7 58 4.1 S 9 15 5 8 1015.3 1015.1 0.0
18/07:00am 16.3 13.0 6.3 51 4.9 SW 13 20 7 11 1014.9 1014.7 0.0
18/06:30am 16.6 12.9 6.2 50 5.1 SW 15 24 8 13 1014.4 1014.2 0.0
18/06:00am 16.5 12.8 6.5 51 4.9 SW 15 26 8 14 1014.1 1013.9 0.0
18/05:30am 16.5 12.3 5.8 49 5.2 SW 17 26 9 14 1014.0 1013.8 0.0
18/05:00am 16.6 12.9 6.4 51 5.0 SW 15 28 8 15 1013.9 1013.7 0.0
18/04:30am 16.7 13.1 8.3 57 4.3 SW 17 26 9 14 1014.1 1013.9 0.0
18/04:00am 16.7 13.1 8.3 57 4.3 SSW 17 28 9 15 1014.3 1014.1 0.0
18/03:30am 17.0 13.5 8.9 59 4.2 SW 17 28 9 15 1014.1 1013.9 0.0
18/03:00am 17.1 14.2 8.1 55 4.6 SW 13 20 7 11 1014.1 1013.9 0.0
18/02:30am 16.7 15.4 9.2 61 3.9 SSW 6 9 3 5 1014.3 1014.1 0.0
18/02:00am 17.0 15.3 8.2 56 4.5 SSW 7 13 4 7 1014.6 1014.4 0.0
18/01:30am 17.2 14.2 7.5 53 4.9 SW 13 26 7 14 1014.8 1014.6 0.0
18/01:00am 17.5 14.6 8.3 54 4.7 SW 13 24 7 13 1015.1 1014.9 0.0
18/12:30am 17.5 14.8 10.4 63 3.8 SSW 15 22 8 12 1015.1 1014.9 0.0
18/12:00am 18.4 14.6 6.0 44 6.1 SW 15 26 8 14 1014.8 1014.6 0.0
 
Date/Time
CDT
Temp
°C
App
Temp
°C
Dew
Point
°C
Rel
Hum
%
Delta-T
°C
Wind Press
QNH
hPa
Press
MSL
hPa
Rain since
9am
mm
Dir  Spd
km/h
Gust
km/h
Spd
kts
Gust
kts
17/11:30pm 18.2 15.6 7.8 50 5.3 SW 11 24 6 13 1015.1 1014.9 0.0
17/11:00pm 17.9 15.5 10.0 60 4.2 SSW 13 24 7 13 1015.4 1015.2 0.0
17/10:30pm 18.1 15.8 11.9 67 3.4 SW 15 26 8 14 1015.6 1015.4 0.0
17/10:00pm 18.5 16.2 11.8 65 3.7 SSW 15 24 8 13 1015.0 1014.9 0.0
17/09:30pm 19.3 16.2 10.2 55 4.9 WSW 17 28 9 15 1015.0 1014.8 0.0

Latest Capital City Observations: Canberra | Sydney | Melbourne | Brisbane | Adelaide | Perth | Hobart | Darwin

Other Formats:

Comma delimited format used in spreadsheet applications
http://www.bom.gov.au/fwo/IDS60901/IDS60901.94675.axf

JavaScript Object Notation format (JSON) in row-major order
http://www.bom.gov.au/fwo/IDS60901/IDS60901.94675.json